ADDS METAR Data INFO
IDs: Format: Raw Decoded Include TAF

Data at: 0107 UTC 21 Oct 2017

KSNS 210053Z 27009KT 10SM BKN055 15/09 A3010 RMK AO2 SLP203 T01500094
KSNS 202353Z 26013KT 10SM CLR 16/09 A3011 RMK AO2 SLP204 T01610094 10178 20156 53005
KSNS 202253Z 27013KT 10SM CLR 17/08 A3010 RMK AO2 SLP202 T01670083
KSNS 202153Z 27013KT 10SM CLR 17/09 A3010 RMK AO2 SLP201 T01720089
KSNS 202053Z 26012KT 10SM CLR 18/08 A3009 RMK AO2 SLP199 T01780078 58005
KSNS 201953Z 26012KT 10SM FEW033 17/07 A3011 RMK AO2 SLP205 T01720072
KSNS 201853Z 27011KT 10SM FEW031 17/08 A3011 RMK AO2 SLP205 T01670083
KSNS 201753Z VRB03KT 10SM CLR 16/10 A3011 RMK AO2 SLP205 T01610100 10161 20106 51014
KSNS 201653Z 00000KT 10SM CLR 15/11 A3010 RMK AO2 SLP201 T01500106
KSNS 201553Z 33003KT 10SM CLR 13/11 A3009 RMK AO2 SLP197 T01330106
KSNS 201453Z 00000KT 10SM CLR 12/11 A3007 RMK AO2 SLP191 T01170106 50017
KSNS 201353Z 25003KT 10SM CLR 12/11 A3007 RMK AO2 SLP191 T01220106
KSNS 201318Z 00000KT 10SM FEW021 SCT033 12/11 A3004 RMK AO2 T01220106
KSNS 201253Z AUTO 00000KT 10SM BKN017 BKN024 13/11 A3005 RMK AO2 SLP183 T01280111
KSNS 201241Z AUTO 34003KT 10SM BKN017 BKN022 13/11 A3005 RMK AO2 T01280111
KSNS 201153Z AUTO 27003KT 10SM FEW090 13/11 A3002 RMK AO2 SLP174 60013 70013 T01280111 10178 20128 53010
KSNS 201053Z AUTO 23009KT 10SM OVC070 13/12 A2999 RMK AO2 RAE26 SLP165 P0001 T01280117
KSNS 200953Z AUTO 23009KT 7SM -RA FEW008 OVC032 13/13 A2999 RMK AO2 RAB0856 SLP163 P0012 T01330128
KSNS 200949Z AUTO 24008KT 7SM -RA FEW008 OVC032 13/13 A2999 RMK AO2 RAB0856 P0012
KSNS 200922Z AUTO 29010KT 5SM -RA BR SCT008 OVC022 13/13 A2997 RMK AO2 RAB0856 P0011 T01330128
KSNS 200909Z AUTO 26016G21KT 3SM -RA BR FEW018 BKN024 OVC036 13/12 A2996 RMK AO2 RAB0856 P0011 T01330122
KSNS 200858Z AUTO 26015KT 1 3/4SM +RA BR BKN017 BKN023 OVC038 14/12 A2996 RMK AO2 RAB56 PRESRR P0009 T01390122
KSNS 200853Z AUTO 10SM SCT019 BKN024 OVC055 15/13 A2994 RMK AO2 RAB38E52 SLP148 P0000 60000 T01500128 55002
KSNS 200846Z AUTO 13008KT 7SM -RA BKN022 BKN032 OVC060 15/13 A2993 RMK AO2 RAB38 P0000 T01500128
KSNS 200804Z AUTO 21011KT 10SM FEW020 OVC055 17/14 A2992 RMK AO2 T01720139
KSNS 200753Z AUTO 23009KT 10SM BKN021 OVC055 17/14 A2993 RMK AO2 SLP143 T01720139 401890100
KSNS 200710Z AUTO 23003KT 10SM BKN020 BKN027 BKN042 17/13 A2993 RMK AO2 T01720133
KSNS 200702Z AUTO 20004KT 10SM SCT020 SCT027 BKN035 17/13 A2993 RMK AO2 T01670133
KSNS 200653Z AUTO 18003KT 10SM BKN019 BKN034 BKN044 17/13 A2993 RMK AO2 SLP145 T01670128
KSNS 200553Z AUTO 32003KT 10SM BKN025 BKN036 OVC065 17/13 A2995 RMK AO2 SLP150 T01720128 10172 20161 53001
KSNS 200542Z AUTO 30003KT 10SM BKN026 OVC065 17/13 A2995 RMK AO2 T01720128
KSNS 200531Z AUTO 00000KT 10SM SCT026 OVC065 17/13 A2995 RMK AO2 T01720128
KSNS 200519Z AUTO 36004KT 10SM BKN026 BKN034 OVC060 17/13 A2995 RMK AO2 T01670128
KSNS 200453Z AUTO 03006KT 10SM SCT018 BKN036 OVC060 16/13 A2994 RMK AO2 SLP147 T01610128
KSNS 200353Z AUTO 31003KT 10SM OVC016 17/12 A2995 RMK AO2 SLP150 T01670122
KSNS 200253Z AUTO 33004KT 10SM BKN018 16/12 A2995 RMK AO2 SLP149 T01610122 56001
KSNS 200153Z 27006KT 10SM BKN022 BKN028 16/12 A2995 RMK AO2 SLP150 T01610122
KSNS 200053Z 26011KT 10SM OVC020 17/12 A2994 RMK AO2 SLP147 T01670122
KSNS 192353Z 27012KT 10SM BKN022 17/12 A2995 RMK AO2 SLP150 T01720117 10189 20139 56004
KSNS 192351Z 25012KT 10SM BKN022 17/12 A2995 RMK AO2
KSNS 192253Z 26013G19KT 10SM FEW024 FEW044 18/12 A2995 RMK AO2 SLP150 T01780117
KSNS 192153Z 28012KT 10SM CLR 19/12 A2996 RMK AO2 SLP154 T01890117
KSNS 192053Z 28010KT 10SM FEW042 OVC050 17/11 A2998 RMK AO2 SLP160 T01720111 58012
KSNS 191953Z 28010KT 9SM OVC050 17/11 A3000 RMK AO2 SLP167 T01720106
KSNS 191853Z 27005KT 10SM SCT048 SCT060 SCT080 17/10 A3000 RMK AO2 SLP169 T01670100
KSNS 191753Z 00000KT 9SM FEW009 OVC080 14/10 A3001 RMK AO2 SLP172 T01390100 10139 20106 58001
KSNS 191653Z 17003KT 7SM OVC007 12/10 A3002 RMK AO2 SLP175 T01170100
KSNS 191553Z 11005KT 6SM BR OVC006 11/10 A3002 RMK AO2 SLP173 T01110100
KSNS 191453Z 13006KT 6SM BR OVC006 11/10 A3000 RMK AO2 SLP167 T01110100 55002
KSNS 191353Z 13006KT 9SM OVC006 11/10 A2999 RMK AO2 SLP164 T01110100